16TA weather

Seven Springs Airport
Toyahvale, Texas, United States

Public forecast

Using degrees Fahrenheit for public forecast. Weather courtesy of forecast.io.

Closest aviation weather report (METAR) to Seven Springs Airport

Closest report is Pecos Municipal Airport, 31.1 nm (57.6 km) NNE. Retrieved 2020/06/04 22:55 UTC (9 minutes ago):

KPEQ 042255Z AUTO 10011G20KT 10SM CLR 39/08 A2980 RMK AO2 T03930084

Closest aviation forecast (TAF) to Seven Springs Airport

Closest forecast is Pecos Municipal Airport, 31.1 nm (57.6 km) NNE. Retrieved 2020/06/04 18:42 UTC (4 hours ago):

TAF KPEQ 041738Z 0418/0518 11010KT P6SM SKC FM050200 12012KT P6SM SKC